Time;durP1;ratioP1;P1;durP2;ratioP2;P2;SDS_P1;SDS_P2;PMS_P1;PMS_P2;Temp;Humidity;BMP_temperature;BMP_pressure;BME280_temperature;BME280_humidity;BME280_pressure;Samples;Min_cycle;Max_cycle;Signal;HPM_P1;HPM_P2
2023/07/27 00:01:55;;;;;;;0.82;0.40;;;19.30;71.30;;;;;;5080235;28;20062;-67
2023/07/27 00:04:22;;;;;;;0.77;0.50;;;19.30;71.40;;;;;;5078240;28;20709;-68
2023/07/27 00:06:49;;;;;;;0.90;0.45;;;19.20;71.20;;;;;;5073815;28;20052;-74
2023/07/27 00:09:15;;;;;;;0.98;0.55;;;19.20;71.30;;;;;;5076044;28;20040;-67
2023/07/27 00:11:41;;;;;;;1.13;0.63;;;19.20;71.30;;;;;;5083378;28;20038;-67
2023/07/27 00:14:07;;;;;;;1.30;0.68;;;19.20;71.40;;;;;;5083286;28;20032;-68
2023/07/27 00:16:33;;;;;;;0.70;0.60;;;19.20;71.50;;;;;;5084473;28;20035;-67
2023/07/27 00:18:59;;;;;;;1.80;0.63;;;19.20;71.60;;;;;;5083852;28;20028;-70
2023/07/27 00:21:25;;;;;;;0.70;0.60;;;19.20;71.60;;;;;;5078244;28;20452;-66
2023/07/27 00:23:51;;;;;;;0.70;0.50;;;19.20;71.70;;;;;;5078900;28;20031;-66
2023/07/27 00:26:17;;;;;;;0.80;0.70;;;19.20;71.70;;;;;;5084096;28;20455;-66
2023/07/27 00:28:43;;;;;;;0.82;0.60;;;19.20;71.70;;;;;;5086769;28;20424;-67
2023/07/27 00:31:09;;;;;;;0.77;0.50;;;19.20;71.80;;;;;;5079302;28;20063;-70
2023/07/27 00:33:35;;;;;;;1.00;0.90;;;19.20;71.80;;;;;;5083147;28;20054;-68
2023/07/27 00:36:01;;;;;;;0.73;0.55;;;19.20;71.80;;;;;;5081195;28;20089;-67
2023/07/27 00:38:28;;;;;;;0.73;0.68;;;19.10;71.70;;;;;;5077049;28;20040;-73
2023/07/27 00:40:54;;;;;;;2.90;0.60;;;19.20;71.90;;;;;;5078770;28;20384;-72
2023/07/27 00:43:20;;;;;;;2.38;0.88;;;19.20;72.00;;;;;;5084255;28;20655;-71
2023/07/27 00:45:48;;;;;;;0.47;0.47;;;19.20;72.10;;;;;;5081408;28;20043;-67
2023/07/27 00:48:14;;;;;;;0.90;0.50;;;19.10;71.90;;;;;;5073802;28;20145;-74
2023/07/27 00:50:40;;;;;;;1.20;0.55;;;19.20;72.20;;;;;;5081824;28;20613;-67
2023/07/27 00:53:08;;;;;;;1.10;0.75;;;19.20;72.20;;;;;;5079732;28;20106;-68
2023/07/27 00:55:36;;;;;;;0.88;0.70;;;19.20;72.20;;;;;;5080434;28;20271;-67
2023/07/27 00:58:02;;;;;;;0.65;0.63;;;19.10;72.00;;;;;;5079657;28;20047;-70
2023/07/27 01:00:30;;;;;;;0.90;0.65;;;19.10;72.10;;;;;;5077461;28;20032;-68
2023/07/27 01:02:56;;;;;;;2.13;0.70;;;19.10;72.10;;;;;;5077859;28;20460;-67
2023/07/27 01:05:23;;;;;;;0.85;0.60;;;19.10;72.20;;;;;;5080815;28;20623;-68
2023/07/27 01:07:49;;;;;;;0.80;0.77;;;19.10;72.20;;;;;;5071369;28;20020;-67
2023/07/27 01:10:15;;;;;;;1.35;0.82;;;19.10;72.30;;;;;;5084714;28;20501;-72
2023/07/27 01:13:07;;;;;;;1.20;0.85;;;19.20;72.50;;;;;;5079316;28;20063;-67
2023/07/27 01:15:42;;;;;;;0.60;0.50;;;19.10;72.30;;;;;;5075341;28;20043;-73
2023/07/27 01:18:20;;;;;;;0.90;0.57;;;19.10;72.90;;;;;;5079244;28;20039;-73
2023/07/27 01:21:04;;;;;;;1.70;0.82;;;19.20;72.60;;;;;;5079495;28;20639;-66
2023/07/27 01:24:07;;;;;;;0.65;0.63;;;19.10;72.50;;;;;;5085792;28;20040;-67
2023/07/27 01:26:45;;;;;;;0.80;0.40;;;19.10;72.60;;;;;;5079790;28;20036;-67
2023/07/27 01:29:42;;;;;;;1.05;0.77;;;19.10;72.50;;;;;;5082296;28;20504;-71
2023/07/27 01:32:10;;;;;;;0.40;0.40;;;19.10;72.60;;;;;;5081538;28;20031;-67
2023/07/27 01:34:40;;;;;;;0.90;0.65;;;19.10;72.50;;;;;;5088316;28;20185;-67
2023/07/27 01:37:09;;;;;;;2.50;0.55;;;19.10;72.60;;;;;;5074171;28;20640;-67
2023/07/27 01:39:43;;;;;;;1.27;0.50;;;19.10;72.70;;;;;;5083173;28;20059;-67
2023/07/27 01:42:13;;;;;;;0.60;0.40;;;19.10;72.80;;;;;;5083692;28;20040;-67
2023/07/27 01:44:40;;;;;;;1.20;0.70;;;19.20;72.90;;;;;;5085630;28;20059;-67
2023/07/27 01:47:08;;;;;;;1.30;0.40;;;19.10;72.80;;;;;;5085517;28;20032;-67
2023/07/27 01:49:39;;;;;;;1.42;0.40;;;19.10;72.90;;;;;;5081645;28;20482;-67
2023/07/27 01:52:07;;;;;;;1.92;0.93;;;19.10;72.90;;;;;;5075949;28;20878;-67
2023/07/27 01:54:35;;;;;;;0.50;0.43;;;19.10;73.00;;;;;;5089136;28;20032;-67
2023/07/27 01:57:02;;;;;;;0.75;0.60;;;19.10;73.00;;;;;;5087169;28;20128;-67
2023/07/27 01:59:29;;;;;;;1.85;0.57;;;19.10;73.10;;;;;;5072936;28;21211;-72
2023/07/27 02:01:55;;;;;;;1.17;0.50;;;19.10;73.70;;;;;;5085935;28;20024;-66
2023/07/27 02:04:22;;;;;;;2.15;0.70;;;19.10;73.20;;;;;;5089170;28;20048;-71
2023/07/27 02:06:52;;;;;;;0.60;0.52;;;19.10;73.30;;;;;;5074431;28;20097;-68
2023/07/27 02:09:18;;;;;;;3.63;0.88;;;19.10;73.40;;;;;;5090490;28;20039;-66
2023/07/27 02:11:52;;;;;;;0.93;0.52;;;19.10;73.40;;;;;;5085770;28;20032;-67
2023/07/27 02:14:36;;;;;;;0.95;0.57;;;19.00;73.20;;;;;;5090733;28;20414;-67
2023/07/27 02:17:11;;;;;;;0.40;0.30;;;19.00;73.30;;;;;;5070440;28;20044;-70
2023/07/27 02:19:40;;;;;;;0.63;0.50;;;19.00;73.90;;;;;;5085283;28;20408;-68
2023/07/27 02:22:09;;;;;;;0.65;0.30;;;19.10;73.50;;;;;;5083816;28;20036;-67
2023/07/27 02:24:36;;;;;;;0.80;0.50;;;19.00;73.30;;;;;;5077502;28;20544;-72
2023/07/27 02:27:02;;;;;;;1.10;0.30;;;19.00;73.30;;;;;;5077761;28;20024;-66
2023/07/27 02:29:28;;;;;;;0.43;0.40;;;19.00;73.40;;;;;;5086055;28;20424;-66
2023/07/27 02:31:54;;;;;;;0.82;0.30;;;19.00;74.00;;;;;;5087457;28;20027;-66
2023/07/27 02:34:20;;;;;;;1.23;0.50;;;19.10;73.70;;;;;;5084239;28;20140;-66
2023/07/27 02:36:46;;;;;;;0.30;0.30;;;19.10;73.80;;;;;;5084346;28;20040;-66
2023/07/27 02:39:13;;;;;;;0.73;0.50;;;19.00;73.60;;;;;;5084474;28;20036;-66
2023/07/27 02:41:39;;;;;;;0.65;0.35;;;19.10;73.80;;;;;;5084183;28;20039;-66
2023/07/27 02:44:11;;;;;;;;;;;19.10;73.90;;;;;;5084953;28;20052;-67
2023/07/27 02:46:37;;;;;;;0.32;0.32;;;19.10;73.70;;;;;;5083135;28;19912;-66
2023/07/27 02:49:03;;;;;;;0.20;0.20;;;19.00;73.40;;;;;;5080380;28;20697;-67
2023/07/27 02:51:29;;;;;;;0.30;0.25;;;19.10;73.70;;;;;;5085079;28;20054;-66
2023/07/27 02:53:58;;;;;;;0.30;0.30;;;19.10;73.80;;;;;;5078892;28;20030;-66
2023/07/27 02:56:28;;;;;;;0.30;0.30;;;19.10;73.90;;;;;;5088890;28;20523;-66
2023/07/27 02:58:54;;;;;;;1.48;0.20;;;19.10;73.90;;;;;;5069694;28;20032;-66
2023/07/27 03:01:21;;;;;;;0.20;0.20;;;19.10;73.90;;;;;;5088203;28;20054;-67
2023/07/27 03:03:54;;;;;;;0.57;0.30;;;19.10;74.00;;;;;;5082778;28;20036;-67
2023/07/27 03:06:21;;;;;;;1.02;0.30;;;19.00;73.90;;;;;;5084947;28;20495;-66
2023/07/27 03:08:52;;;;;;;0.55;0.30;;;19.10;74.10;;;;;;5088456;28;20036;-67
2023/07/27 03:11:18;;;;;;;0.35;0.30;;;19.10;74.20;;;;;;5088824;28;20043;-67
2023/07/27 03:13:44;;;;;;;0.20;0.20;;;19.10;74.30;;;;;;5090506;28;20632;-68
2023/07/27 03:16:10;;;;;;;0.55;0.50;;;19.00;74.10;;;;;;5088825;28;20040;-68
2023/07/27 03:18:36;;;;;;;0.20;0.20;;;19.10;74.60;;;;;;5088544;28;20046;-72
2023/07/27 03:21:04;;;;;;;1.00;0.20;;;19.00;74.30;;;;;;5087764;28;20131;-66
2023/07/27 03:23:30;;;;;;;1.27;0.30;;;19.10;74.60;;;;;;5086294;28;20043;-74
2023/07/27 03:25:56;;;;;;;2.13;0.43;;;19.10;74.60;;;;;;5085940;28;20039;-68
2023/07/27 03:28:22;;;;;;;0.20;0.20;;;19.00;74.50;;;;;;5069685;28;20534;-69
2023/07/27 03:30:48;;;;;;;0.60;0.30;;;19.00;74.50;;;;;;5082270;28;20104;-68
2023/07/27 03:33:14;;;;;;;1.23;0.28;;;19.00;74.60;;;;;;5085212;28;20028;-68
2023/07/27 03:35:40;;;;;;;0.57;0.20;;;19.00;74.60;;;;;;5082675;28;20553;-67
2023/07/27 03:38:06;;;;;;;1.45;0.40;;;19.00;74.70;;;;;;5084738;28;20040;-68
2023/07/27 03:40:33;;;;;;;3.33;1.15;;;19.00;74.80;;;;;;5090036;28;20032;-67
2023/07/27 03:42:58;;;;;;;1.38;0.20;;;19.00;74.80;;;;;;5072494;28;20512;-67
2023/07/27 03:45:25;;;;;;;0.90;0.28;;;19.00;74.80;;;;;;5071840;28;20040;-66
2023/07/27 03:47:51;;;;;;;0.55;0.30;;;19.00;74.90;;;;;;5084259;28;20475;-67
2023/07/27 03:50:17;;;;;;;0.38;0.20;;;19.00;74.90;;;;;;5075888;28;20035;-67
2023/07/27 03:52:45;;;;;;;0.73;0.20;;;19.00;74.90;;;;;;5079633;28;20063;-71
2023/07/27 03:55:12;;;;;;;1.17;0.20;;;19.00;74.90;;;;;;5087675;28;20032;-66
2023/07/27 03:57:39;;;;;;;1.88;0.28;;;19.10;75.10;;;;;;5084101;28;20754;-73
2023/07/27 04:00:06;;;;;;;0.82;0.25;;;19.10;75.20;;;;;;5085572;28;20067;-68
2023/07/27 04:02:39;;;;;;;0.20;0.20;;;19.00;75.00;;;;;;5086628;28;20051;-69
2023/07/27 04:05:06;;;;;;;1.17;0.50;;;19.10;75.30;;;;;;5082228;28;20024;-67
2023/07/27 04:07:32;;;;;;;2.38;0.40;;;19.10;75.30;;;;;;5074919;28;20040;-68
2023/07/27 04:09:58;;;;;;;0.52;0.20;;;19.00;75.10;;;;;;5089987;28;20176;-69
2023/07/27 04:12:24;;;;;;;1.58;0.30;;;19.00;75.70;;;;;;5085315;28;20114;-67
2023/07/27 04:14:51;;;;;;;0.20;0.20;;;19.10;75.40;;;;;;5067324;28;20054;-67
2023/07/27 04:17:17;;;;;;;3.17;0.30;;;19.10;75.40;;;;;;5087813;28;20119;-67
2023/07/27 04:19:42;;;;;;;0.17;0.17;;;19.10;75.50;;;;;;5084825;28;20186;-66
2023/07/27 04:22:08;;;;;;;1.45;0.25;;;19.10;75.60;;;;;;5085855;28;20051;-67
2023/07/27 04:24:34;;;;;;;1.58;0.20;;;19.00;75.50;;;;;;5079641;28;20037;-68
2023/07/27 04:27:00;;;;;;;0.30;0.10;;;19.00;75.50;;;;;;5076230;28;20028;-70
2023/07/27 04:29:26;;;;;;;1.13;0.20;;;19.10;75.80;;;;;;5085116;28;20032;-66
2023/07/27 04:31:52;;;;;;;0.75;0.10;;;19.00;75.70;;;;;;5081817;28;20034;-66
2023/07/27 04:34:18;;;;;;;3.78;0.20;;;19.00;75.70;;;;;;5084983;28;20051;-67
2023/07/27 04:36:47;;;;;;;1.92;0.73;;;19.00;75.80;;;;;;5082418;28;20050;-67
2023/07/27 04:39:14;;;;;;;2.75;0.30;;;19.00;75.80;;;;;;5078490;28;20093;-67
2023/07/27 04:41:40;;;;;;;1.00;0.30;;;19.00;75.90;;;;;;5086475;28;20045;-71
2023/07/27 04:44:05;;;;;;;3.25;0.20;;;19.00;75.90;;;;;;5085404;28;20191;-71
2023/07/27 04:46:31;;;;;;;1.00;0.17;;;19.00;75.90;;;;;;5086458;28;20103;-66
2023/07/27 04:48:57;;;;;;;0.28;0.20;;;19.00;75.90;;;;;;5077961;28;20074;-68
2023/07/27 04:51:23;;;;;;;0.93;0.30;;;19.10;76.20;;;;;;5081256;28;20026;-68
2023/07/27 04:53:49;;;;;;;0.30;0.20;;;19.10;76.30;;;;;;5083166;28;20036;-68
2023/07/27 04:56:15;;;;;;;0.20;0.20;;;19.00;76.10;;;;;;5080433;28;20096;-68
2023/07/27 04:58:41;;;;;;;0.30;0.20;;;19.10;76.30;;;;;;5078025;28;20105;-68
2023/07/27 05:01:07;;;;;;;1.35;0.20;;;19.10;76.30;;;;;;5080088;28;20751;-66
2023/07/27 05:03:33;;;;;;;1.58;0.63;;;19.10;76.30;;;;;;5082174;28;20048;-68
2023/07/27 05:05:59;;;;;;;0.40;0.20;;;19.10;76.30;;;;;;5082680;28;20039;-70
2023/07/27 05:08:25;;;;;;;1.65;0.30;;;19.10;76.40;;;;;;5067778;28;20388;-70
2023/07/27 05:10:51;;;;;;;1.33;0.50;;;19.10;76.30;;;;;;5076521;28;20028;-69
2023/07/27 05:13:17;;;;;;;0.40;0.20;;;19.20;76.70;;;;;;5074812;28;20483;-67
2023/07/27 05:15:44;;;;;;;0.50;0.20;;;19.20;76.90;;;;;;5061366;28;20031;-72
2023/07/27 05:18:10;;;;;;;0.10;0.10;;;19.30;77.30;;;;;;5079843;28;20038;-73
2023/07/27 05:20:36;;;;;;;1.05;0.20;;;19.30;77.30;;;;;;5075989;28;20520;-68
2023/07/27 05:23:02;;;;;;;3.63;0.52;;;19.40;77.60;;;;;;5069917;28;20402;-67
2023/07/27 05:25:28;;;;;;;1.77;0.57;;;19.50;77.90;;;;;;5083992;28;20043;-69
2023/07/27 05:27:54;;;;;;;1.38;0.52;;;19.60;78.20;;;;;;5070460;28;20040;-71
2023/07/27 05:30:20;;;;;;;1.30;0.50;;;19.70;78.50;;;;;;5077381;28;20039;-71
2023/07/27 05:32:45;;;;;;;1.25;0.50;;;19.70;78.60;;;;;;5075865;28;20028;-70
2023/07/27 05:35:11;;;;;;;1.80;0.40;;;19.80;78.90;;;;;;5080677;28;20320;-71
2023/07/27 05:37:37;;;;;;;1.20;0.20;;;19.90;79.10;;;;;;5064816;28;20476;-70
2023/07/27 05:40:07;;;;;;;0.82;0.40;;;19.90;79.10;;;;;;5079247;28;20471;-70
2023/07/27 05:42:33;;;;;;;1.05;0.50;;;20.00;79.20;;;;;;5083423;28;20043;-68
2023/07/27 05:44:59;;;;;;;1.92;0.60;;;20.00;79.30;;;;;;5069333;28;20567;-83
2023/07/27 05:47:25;;;;;;;1.40;0.50;;;20.10;79.50;;;;;;5079403;28;20036;-81
2023/07/27 05:49:51;;;;;;;0.60;0.32;;;20.10;79.60;;;;;;5074188;28;20032;-73
2023/07/27 05:52:17;;;;;;;1.27;0.43;;;20.20;79.80;;;;;;5078158;28;20028;-81
2023/07/27 05:54:43;;;;;;;1.50;0.77;;;20.20;79.90;;;;;;5085650;28;20038;-76
2023/07/27 05:57:09;;;;;;;1.95;0.63;;;20.20;79.90;;;;;;5077800;28;20096;-82
2023/07/27 05:59:35;;;;;;;0.63;0.30;;;20.30;80.10;;;;;;5078888;28;20824;-75
2023/07/27 06:02:01;;;;;;;0.68;0.47;;;20.30;80.20;;;;;;5074411;28;20067;-82
2023/07/27 06:04:27;;;;;;;0.65;0.30;;;20.30;80.20;;;;;;5083047;28;20134;-81
2023/07/27 06:06:54;;;;;;;0.88;0.30;;;20.40;80.30;;;;;;5069504;28;20036;-79
2023/07/27 06:09:20;;;;;;;3.60;0.55;;;20.40;80.40;;;;;;5082035;28;20530;-76
2023/07/27 06:11:46;;;;;;;1.77;0.30;;;20.50;80.60;;;;;;5075488;28;20101;-80
2023/07/27 06:14:12;;;;;;;0.75;0.22;;;20.60;80.60;;;;;;5072580;28;20479;-84
2023/07/27 06:16:38;;;;;;;1.05;0.45;;;20.60;80.30;;;;;;5073263;28;20028;-68
2023/07/27 06:19:04;;;;;;;1.10;0.30;;;20.70;80.30;;;;;;5075417;28;20023;-67
2023/07/27 06:21:30;;;;;;;3.08;0.85;;;20.70;80.10;;;;;;5082770;28;20040;-74
2023/07/27 06:23:55;;;;;;;1.42;0.45;;;20.80;80.00;;;;;;5087022;28;20492;-74
2023/07/27 06:26:21;;;;;;;0.77;0.40;;;20.80;79.90;;;;;;5078948;28;20085;-79
2023/07/27 06:28:47;;;;;;;0.57;0.30;;;20.80;79.80;;;;;;5083669;28;20338;-68
2023/07/27 06:31:13;;;;;;;0.85;0.50;;;20.80;79.80;;;;;;5081469;28;20395;-68
2023/07/27 06:33:39;;;;;;;0.38;0.20;;;20.80;79.60;;;;;;5084867;28;20046;-70
2023/07/27 06:36:07;;;;;;;3.60;0.40;;;20.90;79.70;;;;;;5081153;28;20399;-69
2023/07/27 06:38:33;;;;;;;1.58;0.50;;;20.80;79.50;;;;;;5072887;28;20687;-72
2023/07/27 06:40:59;;;;;;;1.27;0.35;;;20.80;79.40;;;;;;5080196;28;20024;-68
2023/07/27 06:43:25;;;;;;;2.08;0.40;;;20.80;79.40;;;;;;5081161;28;20111;-68
2023/07/27 06:45:51;;;;;;;1.15;0.30;;;20.80;79.30;;;;;;5079925;28;20081;-68
2023/07/27 06:48:17;;;;;;;1.45;0.38;;;20.80;79.30;;;;;;5081437;28;20036;-70
2023/07/27 06:50:43;;;;;;;2.55;0.40;;;20.80;79.20;;;;;;5076499;28;20064;-68
2023/07/27 06:53:09;;;;;;;2.05;0.22;;;20.80;79.10;;;;;;5079057;28;20059;-69
2023/07/27 06:55:35;;;;;;;0.75;0.55;;;20.80;79.00;;;;;;5071024;28;20039;-70
2023/07/27 06:58:01;;;;;;;1.50;0.40;;;20.90;79.10;;;;;;5075825;28;20032;-73
2023/07/27 07:00:27;;;;;;;0.40;0.30;;;20.90;79.00;;;;;;5086253;28;20426;-69
2023/07/27 07:02:53;;;;;;;2.80;0.57;;;20.90;78.90;;;;;;5082473;28;20568;-69
2023/07/27 07:05:19;;;;;;;3.30;0.75;;;20.90;78.70;;;;;;5079232;28;20028;-73
2023/07/27 07:07:45;;;;;;;0.85;0.22;;;21.00;78.80;;;;;;5078206;28;20455;-73
2023/07/27 07:10:11;;;;;;;0.95;0.30;;;21.00;78.60;;;;;;5092102;28;20142;-67
2023/07/27 07:12:38;;;;;;;0.85;0.30;;;21.10;78.60;;;;;;5085548;28;20107;-71
2023/07/27 07:15:05;;;;;;;1.02;0.60;;;21.10;78.50;;;;;;5092749;28;20573;-68
2023/07/27 07:17:31;;;;;;;2.58;0.60;;;21.20;78.50;;;;;;5078605;28;20456;-67
2023/07/27 07:19:57;;;;;;;0.82;0.30;;;21.30;78.50;;;;;;5094001;28;20103;-70
2023/07/27 07:22:23;;;;;;;1.48;0.40;;;21.30;78.30;;;;;;5084335;28;20107;-67
2023/07/27 07:24:49;;;;;;;0.45;0.30;;;21.30;78.20;;;;;;5086378;28;20126;-68
2023/07/27 07:27:15;;;;;;;1.38;0.60;;;21.30;78.20;;;;;;5088168;28;20032;-68
2023/07/27 07:29:41;;;;;;;1.35;0.40;;;21.30;78.10;;;;;;5085930;28;20032;-67
2023/07/27 07:32:07;;;;;;;0.95;0.60;;;21.30;78.00;;;;;;5077607;28;20032;-67
2023/07/27 07:34:35;;;;;;;1.27;0.40;;;21.30;78.00;;;;;;5088008;28;20392;-69
2023/07/27 07:37:01;;;;;;;1.70;0.60;;;21.40;78.10;;;;;;5080453;28;20096;-70
2023/07/27 07:39:27;;;;;;;3.42;1.00;;;21.40;77.90;;;;;;5087104;28;20442;-69
2023/07/27 07:41:53;;;;;;;1.77;0.70;;;21.50;77.90;;;;;;5081052;28;20150;-73
2023/07/27 07:44:19;;;;;;;1.95;0.68;;;21.50;77.70;;;;;;5084133;28;20304;-70
2023/07/27 07:46:46;;;;;;;1.98;0.90;;;21.60;77.80;;;;;;5073601;28;20455;-67
2023/07/27 07:49:12;;;;;;;3.53;0.98;;;21.60;77.70;;;;;;5074170;28;20081;-69
2023/07/27 07:51:38;;;;;;;0.77;0.50;;;21.60;77.60;;;;;;5080721;28;20036;-72
2023/07/27 07:54:09;;;;;;;1.58;0.57;;;21.60;77.50;;;;;;5098446;28;20422;-67
2023/07/27 07:56:36;;;;;;;0.93;0.60;;;21.60;77.50;;;;;;5089922;28;20557;-74
2023/07/27 07:59:02;;;;;;;0.95;0.50;;;21.60;77.50;;;;;;5093308;28;20047;-71
2023/07/27 08:01:29;;;;;;;3.30;0.98;;;21.60;77.50;;;;;;5084501;28;20078;-70
2023/07/27 08:03:54;;;;;;;1.48;0.60;;;21.60;77.40;;;;;;5083693;28;20051;-74
2023/07/27 08:06:20;;;;;;;2.53;0.70;;;21.70;77.40;;;;;;5075025;28;20040;-70
2023/07/27 08:08:46;;;;;;;3.42;0.70;;;21.80;77.40;;;;;;5079151;28;20036;-69
2023/07/27 08:11:13;;;;;;;1.63;0.77;;;21.80;77.20;;;;;;5078455;28;20396;-74
2023/07/27 08:13:39;;;;;;;3.97;0.77;;;21.90;77.20;;;;;;5075318;28;20040;-68
2023/07/27 08:16:05;;;;;;;2.25;0.55;;;22.00;77.20;;;;;;5085076;28;20031;-75
2023/07/27 08:18:34;;;;;;;2.40;1.25;;;22.00;76.90;;;;;;5089676;28;20411;-75
2023/07/27 08:21:05;;;;;;;1.83;0.90;;;22.10;77.00;;;;;;5070121;28;20085;-72
2023/07/27 08:23:31;;;;;;;5.03;0.95;;;22.20;77.00;;;;;;5084150;28;20035;-73
2023/07/27 08:25:59;;;;;;;2.28;0.80;;;22.30;76.90;;;;;;5062908;28;20169;-73
2023/07/27 08:28:25;;;;;;;3.60;1.25;;;22.50;76.90;;;;;;5084252;28;20036;-76
2023/07/27 08:30:50;;;;;;;3.88;0.95;;;22.60;76.70;;;;;;5090381;28;20425;-71
2023/07/27 08:33:17;;;;;;;8.02;1.80;;;22.80;76.60;;;;;;5081306;28;20492;-70
2023/07/27 08:35:43;;;;;;;4.20;0.70;;;23.00;76.40;;;;;;5080097;28;20039;-72
2023/07/27 08:38:09;;;;;;;2.95;0.90;;;23.10;76.20;;;;;;5082193;28;20032;-70
2023/07/27 08:40:35;;;;;;;3.17;0.60;;;23.10;75.90;;;;;;5076792;28;20028;-70
2023/07/27 08:43:07;;;;;;;5.03;1.17;;;23.20;76.00;;;;;;5083880;28;20068;-67
2023/07/27 08:45:34;;;;;;;3.70;1.02;;;23.20;75.80;;;;;;5074945;28;20044;-72
2023/07/27 08:48:00;;;;;;;3.50;0.90;;;23.20;75.60;;;;;;5068589;28;20111;-67
2023/07/27 08:50:26;;;;;;;1.80;0.60;;;23.20;75.50;;;;;;5071744;28;20370;-67
2023/07/27 08:52:52;;;;;;;5.38;1.05;;;23.30;75.60;;;;;;5077330;28;20024;-67
2023/07/27 08:55:18;;;;;;;3.83;1.15;;;23.30;75.40;;;;;;5090810;28;20028;-67
2023/07/27 08:57:44;;;;;;;2.83;1.00;;;23.40;75.50;;;;;;5094576;28;20449;-70
2023/07/27 09:00:11;;;;;;;5.05;1.23;;;23.40;75.30;;;;;;5082129;28;20032;-67
2023/07/27 09:02:38;;;;;;;3.00;0.88;;;23.50;75.20;;;;;;5093257;28;20585;-67
2023/07/27 09:05:06;;;;;;;6.22;1.13;;;23.50;75.00;;;;;;5092972;28;20098;-66
2023/07/27 09:07:32;;;;;;;3.78;1.08;;;23.60;74.90;;;;;;5069600;28;20438;-68
2023/07/27 09:09:58;;;;;;;4.00;1.25;;;23.70;74.80;;;;;;5084570;28;20043;-68
2023/07/27 09:12:26;;;;;;;2.53;1.20;;;23.70;74.50;;;;;;5088058;28;20062;-67
2023/07/27 09:14:55;;;;;;;2.83;0.80;;;23.80;74.40;;;;;;5079139;28;20032;-68
2023/07/27 09:17:22;;;;;;;2.92;1.13;;;23.80;74.20;;;;;;5086445;28;20050;-67
2023/07/27 09:19:50;;;;;;;2.47;1.00;;;23.80;74.00;;;;;;5079884;28;20027;-68
2023/07/27 09:22:17;;;;;;;4.18;0.98;;;23.90;74.00;;;;;;5083356;28;20051;-66
2023/07/27 09:24:44;;;;;;;2.50;0.82;;;24.00;74.00;;;;;;5089058;28;20055;-67
2023/07/27 09:27:14;;;;;;;4.10;1.23;;;24.10;73.90;;;;;;5084140;28;20097;-70
2023/07/27 09:29:41;;;;;;;2.47;0.75;;;24.10;73.70;;;;;;5087615;28;20039;-68
2023/07/27 09:32:09;;;;;;;3.80;1.48;;;24.20;73.50;;;;;;5083734;28;20030;-67
2023/07/27 09:34:35;;;;;;;3.70;1.40;;;24.30;73.30;;;;;;5080797;28;20076;-66
2023/07/27 09:37:10;;;;;;;2.78;0.90;;;24.50;73.30;;;;;;5079387;28;20585;-67
2023/07/27 09:39:42;;;;;;;2.20;0.98;;;24.50;72.90;;;;;;5087641;28;20264;-67
2023/07/27 09:42:10;;;;;;;3.75;0.80;;;24.60;72.80;;;;;;5084177;28;20032;-68
2023/07/27 09:44:53;;;;;;;3.50;0.82;;;24.70;72.80;;;;;;5085720;28;20151;-67
2023/07/27 09:47:20;;;;;;;4.60;1.10;;;24.70;72.50;;;;;;5066099;28;20047;-69
2023/07/27 09:49:50;;;;;;;2.88;1.10;;;24.80;72.60;;;;;;5074005;28;20048;-67
2023/07/27 09:52:20;;;;;;;1.58;0.70;;;24.90;72.40;;;;;;5078170;28;20318;-69
2023/07/27 09:54:50;;;;;;;3.65;1.05;;;25.10;72.30;;;;;;5094009;28;20518;-67
2023/07/27 09:57:18;;;;;;;2.35;0.98;;;25.10;72.00;;;;;;5081966;28;20046;-67
2023/07/27 09:59:45;;;;;;;3.63;1.05;;;25.20;71.70;;;;;;5086672;28;20586;-68
2023/07/27 10:02:13;;;;;;;4.82;1.85;;;25.30;71.40;;;;;;5090399;28;20032;-70
2023/07/27 10:04:45;;;;;;;2.67;1.48;;;25.50;71.30;;;;;;5088619;28;20066;-67
2023/07/27 10:07:13;;;;;;;5.22;1.80;;;25.60;71.00;;;;;;5082043;28;20418;-67
2023/07/27 10:09:40;;;;;;;6.43;1.33;;;25.80;70.70;;;;;;5074552;28;20112;-67
2023/07/27 10:12:07;;;;;;;4.03;1.30;;;26.00;70.30;;;;;;5089564;28;20039;-67
2023/07/27 10:14:33;;;;;;;3.58;1.45;;;26.10;69.80;;;;;;5085031;28;20063;-74
2023/07/27 10:17:00;;;;;;;3.85;1.27;;;26.40;69.40;;;;;;5088256;28;20035;-74
2023/07/27 10:19:39;;;;;;;5.60;1.98;;;26.60;68.90;;;;;;5083359;28;20383;-77
2023/07/27 10:22:14;;;;;;;4.05;1.10;;;26.80;68.40;;;;;;5079778;28;20047;-69
2023/07/27 10:24:51;;;;;;;2.22;0.68;;;27.00;67.90;;;;;;5088716;28;20085;-71
2023/07/27 10:27:21;;;;;;;4.60;1.60;;;27.30;67.60;;;;;;5082183;28;20028;-74
2023/07/27 10:30:08;;;;;;;2.85;0.80;;;27.50;67.10;;;;;;5091127;28;20047;-77
2023/07/27 10:32:38;;;;;;;3.38;1.08;;;27.60;66.60;;;;;;5084200;28;20031;-75
2023/07/27 10:35:08;;;;;;;6.25;1.45;;;27.80;66.30;;;;;;5077385;28;20051;-73
2023/07/27 10:37:52;;;;;;;3.13;0.88;;;28.00;65.90;;;;;;5086041;28;20030;-72
2023/07/27 10:40:26;;;;;;;3.55;1.23;;;28.10;65.30;;;;;;5082034;28;20040;-67
2023/07/27 10:42:57;;;;;;;4.90;1.50;;;28.30;65.00;;;;;;5088345;28;20046;-68
2023/07/27 10:45:26;;;;;;;2.97;1.20;;;28.40;64.50;;;;;;5084208;28;20047;-67
2023/07/27 10:47:57;;;;;;;2.38;0.95;;;28.60;64.20;;;;;;5081277;28;20040;-67
2023/07/27 10:50:23;;;;;;;2.40;0.93;;;28.60;63.90;;;;;;5068912;28;20152;-67
2023/07/27 10:52:54;;;;;;;3.13;0.80;;;28.70;63.80;;;;;;5098305;28;20321;-70
2023/07/27 10:55:21;;;;;;;2.30;0.70;;;28.70;63.60;;;;;;5095430;28;20028;-67
2023/07/27 10:57:48;;;;;;;3.20;1.27;;;28.80;63.50;;;;;;5093235;28;20522;-66
2023/07/27 11:00:33;;;;;;;3.03;0.90;;;28.80;63.30;;;;;;5101296;28;20614;-66
2023/07/27 11:03:00;;;;;;;3.92;1.13;;;28.70;63.20;;;;;;5092434;28;20035;-67
2023/07/27 11:05:26;;;;;;;2.20;1.02;;;28.70;63.30;;;;;;5097642;28;20680;-67
2023/07/27 11:08:02;;;;;;;2.60;0.85;;;28.60;63.80;;;;;;5077994;28;20057;-66
2023/07/27 11:10:32;;;;;;;2.28;0.60;;;28.50;63.30;;;;;;5099252;27;20031;-70
2023/07/27 11:12:59;;;;;;;3.00;0.85;;;28.50;63.30;;;;;;5093621;28;20417;-71
2023/07/27 11:15:34;;;;;;;0.98;0.50;;;28.60;63.20;;;;;;5099518;28;20134;-70
2023/07/27 11:18:04;;;;;;;2.80;0.63;;;28.90;62.90;;;;;;5092430;28;20477;-68
2023/07/27 11:20:33;;;;;;;3.72;1.10;;;29.10;62.30;;;;;;5093342;28;20480;-71
2023/07/27 11:23:00;;;;;;;2.15;0.80;;;29.30;61.80;;;;;;5090704;28;20043;-72
2023/07/27 11:25:32;;;;;;;2.25;0.70;;;29.40;61.50;;;;;;5096067;28;20379;-68
2023/07/27 11:27:58;;;;;;;1.30;0.80;;;29.60;61.10;;;;;;5089524;28;20252;-71
2023/07/27 11:30:25;;;;;;;1.38;0.85;;;29.70;60.90;;;;;;5091388;28;20499;-69
2023/07/27 11:33:00;;;;;;;1.83;0.50;;;29.90;60.60;;;;;;5085770;28;20032;-69
2023/07/27 11:35:33;;;;;;;1.30;0.65;;;30.10;60.20;;;;;;5088634;28;20063;-70
2023/07/27 11:38:12;;;;;;;1.17;0.70;;;30.20;59.90;;;;;;5086828;28;20028;-71
2023/07/27 11:40:48;;;;;;;1.25;0.52;;;30.30;59.80;;;;;;5093974;28;20080;-69
2023/07/27 11:43:15;;;;;;;3.55;0.73;;;30.40;59.40;;;;;;5089476;28;20499;-69
2023/07/27 11:45:42;;;;;;;1.15;0.70;;;30.50;59.30;;;;;;5077673;27;20435;-69
2023/07/27 11:48:11;;;;;;;1.98;0.60;;;30.80;59.00;;;;;;5074120;28;20040;-73
2023/07/27 11:50:38;;;;;;;1.23;0.68;;;31.00;58.60;;;;;;5069657;28;20617;-70
2023/07/27 11:53:11;;;;;;;1.38;0.70;;;31.20;58.20;;;;;;5098254;28;20035;-74
2023/07/27 11:55:37;;;;;;;0.75;0.50;;;31.30;57.80;;;;;;5088931;28;20041;-67
2023/07/27 11:58:13;;;;;;;3.13;1.00;;;31.50;57.50;;;;;;5085856;28;20028;-74
2023/07/27 12:00:50;;;;;;;3.25;1.10;;;31.70;57.20;;;;;;5091148;28;20035;-67
2023/07/27 12:03:21;;;;;;;1.00;0.60;;;31.90;56.60;;;;;;5075972;28;20399;-68
2023/07/27 12:05:47;;;;;;;3.08;0.80;;;32.00;56.30;;;;;;5080250;28;20039;-68
2023/07/27 12:08:20;;;;;;;0.60;0.50;;;32.10;56.10;;;;;;5073631;28;20411;-72
2023/07/27 12:10:53;;;;;;;0.55;0.45;;;32.20;55.80;;;;;;5081961;28;20038;-70
2023/07/27 12:13:22;;;;;;;1.48;0.70;;;32.20;55.70;;;;;;5081390;28;20036;-69
2023/07/27 12:15:59;;;;;;;1.55;0.50;;;32.40;55.60;;;;;;5084122;28;20043;-68
2023/07/27 12:18:27;;;;;;;2.97;0.60;;;32.50;55.10;;;;;;5072599;28;20073;-72
2023/07/27 12:20:55;;;;;;;2.55;0.60;;;32.50;55.00;;;;;;5073214;28;20123;-72
2023/07/27 12:23:22;;;;;;;1.88;0.82;;;32.60;54.70;;;;;;5081166;28;20047;-69
2023/07/27 12:25:49;;;;;;;1.23;0.52;;;32.60;54.50;;;;;;5083939;28;20028;-69
2023/07/27 12:28:16;;;;;;;0.38;0.32;;;32.70;54.20;;;;;;5080540;28;20118;-75
2023/07/27 12:30:43;;;;;;;1.88;0.90;;;32.80;54.20;;;;;;5080095;28;20024;-76
2023/07/27 12:33:10;;;;;;;1.25;0.52;;;32.70;54.10;;;;;;5078557;28;20032;-77
2023/07/27 12:35:36;;;;;;;1.02;0.43;;;32.80;54.00;;;;;;5080416;28;20086;-67
2023/07/27 12:38:03;;;;;;;1.17;0.52;;;32.90;53.80;;;;;;5080303;28;20051;-78
2023/07/27 12:40:29;;;;;;;1.40;0.50;;;33.00;53.60;;;;;;5079025;28;20364;-74
2023/07/27 12:42:58;;;;;;;1.63;0.73;;;33.00;53.30;;;;;;5080956;28;20054;-76
2023/07/27 12:45:26;;;;;;;1.05;0.40;;;33.10;53.00;;;;;;5081187;28;20125;-72
2023/07/27 12:47:53;;;;;;;1.55;0.60;;;33.20;53.50;;;;;;5088410;28;20036;-77
2023/07/27 12:50:19;;;;;;;1.00;0.63;;;33.30;52.80;;;;;;5067108;28;20042;-73
2023/07/27 12:52:49;;;;;;;2.05;1.10;;;33.40;52.70;;;;;;5087334;28;20036;-75